Time;durP1;ratioP1;P1;durP2;ratioP2;P2;SDS_P1;SDS_P2;PMS_P1;PMS_P2;Temp;Humidity;BMP_temperature;BMP_pressure;BME280_temperature;BME280_humidity;BME280_pressure;Samples;Min_cycle;Max_cycle;Signal;HPM_P1;HPM_P2
2021/06/30 00:01:59;;;;;;;0.70;0.70;;;;;;;;;;5091995;28;20036;-60
2021/06/30 00:04:30;;;;;;;1.83;0.70;;;;;;;;;;5091496;28;20044;-60
2021/06/30 00:07:03;;;;;;;4.45;0.70;;;;;;;;;;5097561;28;20063;-59
2021/06/30 00:09:35;;;;;;;1.48;0.73;;;;;;;;;;5091817;28;20439;-60
2021/06/30 00:12:06;;;;;;;1.00;0.60;;;;;;;;;;5093177;28;20044;-59
2021/06/30 00:14:38;;;;;;;2.38;0.70;;;;;;;;;;5092555;28;20039;-60
2021/06/30 00:17:10;;;;;;;0.60;0.60;;;;;;;;;;5092639;28;20138;-60
2021/06/30 00:19:41;;;;;;;0.70;0.70;;;;;;;;;;5092521;28;20051;-60
2021/06/30 00:22:13;;;;;;;1.63;1.05;;;;;;;;;;5090785;28;20422;-60
2021/06/30 00:24:45;;;;;;;1.98;0.90;;;;;;;;;;5091447;28;20051;-60
2021/06/30 00:27:17;;;;;;;0.65;0.65;;;;;;;;;;5094026;28;20116;-59
2021/06/30 00:29:48;;;;;;;7.95;1.10;;;;;;;;;;5090234;28;20089;-60
2021/06/30 00:32:20;;;;;;;1.48;0.80;;;;;;;;;;5091694;28;20465;-59
2021/06/30 00:34:52;;;;;;;0.85;0.75;;;;;;;;;;5093015;28;20044;-60
2021/06/30 00:37:23;;;;;;;1.17;0.70;;;;;;;;;;5091961;28;20052;-60
2021/06/30 00:39:55;;;;;;;1.35;0.70;;;;;;;;;;5093011;28;20037;-60
2021/06/30 00:42:30;;;;;;;0.82;0.70;;;;;;;;;;5090044;28;20047;-60
2021/06/30 00:45:03;;;;;;;0.80;0.47;;;;;;;;;;5090523;28;20036;-60
2021/06/30 00:47:34;;;;;;;0.80;0.80;;;;;;;;;;5092467;28;20052;-59
2021/06/30 00:50:06;;;;;;;1.05;0.77;;;;;;;;;;5092287;28;20044;-60
2021/06/30 00:52:38;;;;;;;1.23;0.90;;;;;;;;;;5090296;28;20377;-59
2021/06/30 00:55:10;;;;;;;1.08;0.70;;;;;;;;;;5093089;28;20052;-60
2021/06/30 00:57:42;;;;;;;2.50;0.75;;;;;;;;;;5090355;28;20603;-60
2021/06/30 01:00:14;;;;;;;0.80;0.80;;;;;;;;;;5092306;28;20109;-60
2021/06/30 01:02:45;;;;;;;0.93;0.70;;;;;;;;;;5092008;28;20036;-60
2021/06/30 01:05:17;;;;;;;0.77;0.70;;;;;;;;;;5091336;28;20445;-60
2021/06/30 01:07:49;;;;;;;2.10;0.70;;;;;;;;;;5091179;28;20043;-60
2021/06/30 01:10:20;;;;;;;1.73;1.23;;;;;;;;;;5091838;28;20080;-60
2021/06/30 01:12:52;;;;;;;1.67;0.75;;;;;;;;;;5105546;28;20048;-60
2021/06/30 01:15:24;;;;;;;0.93;0.70;;;;;;;;;;5102374;28;20075;-60
2021/06/30 01:17:56;;;;;;;0.98;0.98;;;;;;;;;;5095984;28;20036;-60
2021/06/30 01:20:27;;;;;;;0.70;0.70;;;;;;;;;;5089775;28;20471;-60
2021/06/30 01:23:06;;;;;;;1.35;0.80;;;;;;;;;;5094027;28;20040;-60
2021/06/30 01:25:38;;;;;;;1.83;0.80;;;;;;;;;;5091398;28;20392;-60
2021/06/30 01:28:10;;;;;;;1.95;0.70;;;;;;;;;;5091364;28;20040;-60
2021/06/30 01:30:42;;;;;;;0.80;0.77;;;;;;;;;;5090278;28;20130;-60
2021/06/30 01:33:14;;;;;;;2.28;0.60;;;;;;;;;;5091042;28;20052;-60
2021/06/30 01:35:45;;;;;;;2.85;0.90;;;;;;;;;;5091341;28;20364;-61
2021/06/30 01:38:25;;;;;;;1.15;0.70;;;;;;;;;;5090000;28;20764;-59
2021/06/30 01:40:57;;;;;;;1.55;1.45;;;;;;;;;;5081524;28;20465;-60
2021/06/30 01:43:28;;;;;;;0.82;0.70;;;;;;;;;;5090783;28;20545;-60
2021/06/30 01:46:00;;;;;;;1.75;0.70;;;;;;;;;;5090476;28;20067;-60
2021/06/30 01:48:32;;;;;;;0.70;0.70;;;;;;;;;;5089796;28;20040;-60
2021/06/30 01:51:03;;;;;;;4.05;1.00;;;;;;;;;;5090539;28;20101;-61
2021/06/30 01:53:35;;;;;;;0.85;0.70;;;;;;;;;;5088471;28;20050;-60
2021/06/30 01:56:07;;;;;;;2.55;0.90;;;;;;;;;;5091518;28;20089;-60
2021/06/30 01:58:38;;;;;;;0.80;0.80;;;;;;;;;;5088412;28;20460;-59
2021/06/30 02:01:10;;;;;;;2.85;0.88;;;;;;;;;;5089635;28;20093;-61
2021/06/30 02:03:42;;;;;;;1.02;0.70;;;;;;;;;;5091521;28;20036;-60
2021/06/30 02:06:13;;;;;;;0.73;0.73;;;;;;;;;;5087559;28;20048;-59
2021/06/30 02:08:45;;;;;;;2.25;0.70;;;;;;;;;;5090217;28;20040;-60
2021/06/30 02:11:17;;;;;;;1.30;0.70;;;;;;;;;;5089086;28;20101;-60
2021/06/30 02:13:49;;;;;;;1.90;0.80;;;;;;;;;;5089153;28;20483;-60
2021/06/30 02:16:20;;;;;;;0.80;0.80;;;;;;;;;;5104535;28;20075;-60
2021/06/30 02:18:48;;;;;;;0.70;0.70;;;;;;;;;;5091461;28;20059;-60
2021/06/30 02:21:20;;;;;;;0.80;0.80;;;;;;;;;;5089281;28;20447;-60
2021/06/30 02:23:51;;;;;;;2.55;0.90;;;;;;;;;;5091062;28;20447;-60
2021/06/30 02:26:23;;;;;;;1.63;0.70;;;;;;;;;;5090318;28;20075;-60
2021/06/30 02:28:55;;;;;;;0.70;0.70;;;;;;;;;;5090363;28;20047;-60
2021/06/30 02:31:27;;;;;;;1.90;0.75;;;;;;;;;;5090226;28;20075;-60
2021/06/30 02:33:58;;;;;;;0.70;0.70;;;;;;;;;;5088324;28;20044;-60
2021/06/30 02:36:30;;;;;;;0.80;0.80;;;;;;;;;;5085823;28;20115;-60
2021/06/30 02:39:02;;;;;;;1.60;0.80;;;;;;;;;;5086999;28;20350;-60
2021/06/30 02:41:34;;;;;;;1.50;0.87;;;;;;;;;;5087919;28;20114;-60
2021/06/30 02:44:05;;;;;;;1.08;0.95;;;;;;;;;;5089318;28;20028;-60
2021/06/30 02:46:37;;;;;;;0.80;0.80;;;;;;;;;;5090855;28;20072;-60
2021/06/30 02:49:09;;;;;;;1.05;1.05;;;;;;;;;;5089072;28;20040;-61
2021/06/30 02:51:40;;;;;;;1.52;0.90;;;;;;;;;;5090313;28;20074;-60
2021/06/30 02:54:07;;;;;;;1.50;0.80;;;;;;;;;;5087743;28;20048;-60
2021/06/30 02:56:39;;;;;;;0.82;0.70;;;;;;;;;;5090373;28;20043;-60
2021/06/30 02:59:11;;;;;;;1.52;1.00;;;;;;;;;;5087943;28;20085;-59
2021/06/30 03:01:42;;;;;;;0.88;0.80;;;;;;;;;;5089050;28;20032;-60
2021/06/30 03:04:14;;;;;;;2.38;0.90;;;;;;;;;;5090367;28;20040;-60
2021/06/30 03:06:45;;;;;;;1.63;0.80;;;;;;;;;;5086661;28;20059;-60
2021/06/30 03:09:19;;;;;;;1.25;1.15;;;;;;;;;;5094976;28;20360;-60
2021/06/30 03:11:51;;;;;;;0.80;0.80;;;;;;;;;;5088920;28;20353;-60
2021/06/30 03:14:23;;;;;;;0.70;0.70;;;;;;;;;;5088237;28;20093;-60
2021/06/30 03:16:55;;;;;;;0.93;0.93;;;;;;;;;;5090447;28;20048;-60
2021/06/30 03:19:27;;;;;;;3.15;1.17;;;;;;;;;;5088412;28;20044;-59
2021/06/30 03:21:59;;;;;;;0.75;0.73;;;;;;;;;;5088674;28;20426;-60
2021/06/30 03:24:30;;;;;;;2.90;0.90;;;;;;;;;;5089639;28;20032;-60
2021/06/30 03:27:02;;;;;;;1.65;1.55;;;;;;;;;;5087895;28;20067;-60
2021/06/30 03:29:34;;;;;;;1.33;0.98;;;;;;;;;;5089842;28;20040;-60
2021/06/30 03:32:05;;;;;;;2.83;0.80;;;;;;;;;;5089343;28;20109;-60
2021/06/30 03:34:37;;;;;;;7.28;0.75;;;;;;;;;;5089939;28;20051;-59
2021/06/30 03:37:09;;;;;;;1.60;0.80;;;;;;;;;;5089449;28;20040;-60
2021/06/30 03:39:40;;;;;;;2.08;0.90;;;;;;;;;;5088618;28;20032;-60
2021/06/30 03:42:12;;;;;;;1.05;1.00;;;;;;;;;;5088440;28;20036;-60
2021/06/30 03:44:44;;;;;;;8.13;0.90;;;;;;;;;;5089343;28;20044;-60
2021/06/30 03:47:16;;;;;;;1.67;0.75;;;;;;;;;;5088516;28;20028;-60
2021/06/30 03:49:48;;;;;;;4.07;1.17;;;;;;;;;;5088846;28;20424;-60
2021/06/30 03:52:19;;;;;;;2.35;0.88;;;;;;;;;;5089759;28;20089;-60
2021/06/30 03:54:53;;;;;;;1.02;0.80;;;;;;;;;;5079999;28;20036;-60
2021/06/30 03:57:25;;;;;;;0.80;0.80;;;;;;;;;;5090070;28;20112;-60
2021/06/30 03:59:57;;;;;;;8.20;1.02;;;;;;;;;;5089717;28;20032;-60
2021/06/30 04:02:28;;;;;;;2.63;1.50;;;;;;;;;;5091608;28;20039;-60
2021/06/30 04:05:00;;;;;;;0.90;0.90;;;;;;;;;;5093450;28;20036;-59
2021/06/30 04:07:33;;;;;;;7.32;1.67;;;;;;;;;;5086893;28;20068;-60
2021/06/30 04:10:05;;;;;;;2.97;0.77;;;;;;;;;;5086644;28;20032;-60
2021/06/30 04:12:36;;;;;;;1.52;1.00;;;;;;;;;;5095321;28;20044;-60
2021/06/30 04:15:08;;;;;;;0.80;0.80;;;;;;;;;;5092396;28;20380;-60
2021/06/30 04:17:40;;;;;;;1.15;0.85;;;;;;;;;;5092735;28;20068;-60
2021/06/30 04:20:12;;;;;;;2.58;0.90;;;;;;;;;;5091779;28;20036;-60
2021/06/30 04:22:43;;;;;;;2.08;1.00;;;;;;;;;;5092339;28;20042;-60
2021/06/30 04:25:15;;;;;;;2.40;0.80;;;;;;;;;;5093587;28;20192;-60
2021/06/30 04:27:47;;;;;;;1.10;0.88;;;;;;;;;;5091632;28;20039;-60
2021/06/30 04:30:19;;;;;;;0.80;0.80;;;;;;;;;;5091336;28;20090;-60
2021/06/30 04:32:50;;;;;;;0.98;0.80;;;;;;;;;;5092650;28;20420;-60
2021/06/30 04:35:21;;;;;;;2.08;0.80;;;;;;;;;;5092918;28;20081;-60
2021/06/30 04:37:54;;;;;;;0.90;0.90;;;;;;;;;;5092887;28;20041;-60
2021/06/30 04:40:26;;;;;;;1.90;0.80;;;;;;;;;;5091254;28;20044;-59
2021/06/30 04:42:57;;;;;;;0.80;0.80;;;;;;;;;;5091000;28;20032;-60
2021/06/30 04:45:29;;;;;;;1.20;0.80;;;;;;;;;;5092536;28;20045;-60
2021/06/30 04:48:01;;;;;;;1.92;0.80;;;;;;;;;;5091730;28;20039;-60
2021/06/30 04:50:32;;;;;;;1.10;0.80;;;;;;;;;;5090947;28;20041;-60
2021/06/30 04:53:04;;;;;;;2.92;0.90;;;;;;;;;;5092204;28;20047;-60
2021/06/30 04:55:36;;;;;;;0.70;0.70;;;;;;;;;;5091139;28;20048;-60
2021/06/30 04:58:08;;;;;;;1.35;1.00;;;;;;;;;;5091913;28;20054;-60
2021/06/30 05:00:40;;;;;;;1.00;0.88;;;;;;;;;;5091084;28;20047;-59
2021/06/30 05:03:11;;;;;;;1.90;0.85;;;;;;;;;;5090391;28;20051;-60
2021/06/30 05:05:43;;;;;;;6.32;0.80;;;;;;;;;;5093380;28;20055;-60
2021/06/30 05:08:15;;;;;;;2.55;1.35;;;;;;;;;;5091301;28;20040;-60
2021/06/30 05:10:46;;;;;;;2.47;0.80;;;;;;;;;;5089596;28;20033;-59
2021/06/30 05:13:18;;;;;;;3.63;0.95;;;;;;;;;;5091860;28;20062;-60
2021/06/30 05:15:49;;;;;;;4.40;1.10;;;;;;;;;;5089934;28;20553;-59
2021/06/30 05:18:21;;;;;;;2.70;0.90;;;;;;;;;;5092183;28;20395;-60
2021/06/30 05:20:53;;;;;;;10.02;1.23;;;;;;;;;;5090064;28;20452;-61
2021/06/30 05:23:25;;;;;;;3.13;1.00;;;;;;;;;;5089694;28;20032;-58
2021/06/30 05:25:56;;;;;;;7.43;0.80;;;;;;;;;;5083728;28;20040;-58
2021/06/30 05:28:28;;;;;;;2.83;1.67;;;;;;;;;;5087109;28;20044;-58
2021/06/30 05:31:00;;;;;;;4.25;1.50;;;;;;;;;;5090359;28;20051;-59
2021/06/30 05:33:32;;;;;;;1.98;1.00;;;;;;;;;;5090580;28;20498;-58
2021/06/30 05:36:04;;;;;;;2.15;0.80;;;;;;;;;;5089438;28;20089;-58
2021/06/30 05:38:36;;;;;;;4.53;0.80;;;;;;;;;;5090616;28;20032;-58
2021/06/30 05:41:09;;;;;;;2.53;0.80;;;;;;;;;;5091532;28;20090;-58
2021/06/30 05:43:41;;;;;;;1.90;0.75;;;;;;;;;;5091105;28;20036;-58
2021/06/30 05:46:12;;;;;;;0.98;0.88;;;;;;;;;;5091942;28;20059;-58
2021/06/30 05:48:44;;;;;;;6.85;1.20;;;;;;;;;;5090236;28;20450;-58
2021/06/30 05:51:16;;;;;;;1.45;0.70;;;;;;;;;;5089633;28;20047;-59
2021/06/30 05:53:47;;;;;;;1.33;0.70;;;;;;;;;;5092112;28;20047;-58
2021/06/30 05:56:19;;;;;;;1.15;0.90;;;;;;;;;;5088998;28;20070;-59
2021/06/30 05:58:51;;;;;;;1.98;0.80;;;;;;;;;;5090022;28;20036;-59
2021/06/30 06:01:22;;;;;;;1.27;0.70;;;;;;;;;;5085639;28;20037;-59
2021/06/30 06:03:54;;;;;;;2.47;0.90;;;;;;;;;;5087597;28;20051;-59
2021/06/30 06:06:27;;;;;;;1.63;0.73;;;;;;;;;;5103823;28;20047;-58
2021/06/30 06:08:58;;;;;;;4.38;0.75;;;;;;;;;;5089989;28;20044;-59
2021/06/30 06:11:30;;;;;;;1.95;0.70;;;;;;;;;;5090039;28;20097;-59
2021/06/30 06:14:02;;;;;;;2.80;0.70;;;;;;;;;;5091607;28;20044;-59
2021/06/30 06:16:34;;;;;;;3.95;0.90;;;;;;;;;;5089812;28;20036;-58
2021/06/30 06:19:05;;;;;;;8.45;1.60;;;;;;;;;;5073185;28;20432;-59
2021/06/30 06:21:37;;;;;;;1.10;0.80;;;;;;;;;;5090946;28;20032;-59
2021/06/30 06:24:09;;;;;;;0.98;0.70;;;;;;;;;;5089010;28;20040;-58
2021/06/30 06:26:40;;;;;;;0.98;0.60;;;;;;;;;;5090838;28;20044;-59
2021/06/30 06:29:12;;;;;;;1.70;0.60;;;;;;;;;;5089101;28;20040;-58
2021/06/30 06:31:46;;;;;;;0.77;0.60;;;;;;;;;;5090005;28;20377;-58
2021/06/30 06:34:20;;;;;;;1.02;0.60;;;;;;;;;;5090151;28;20048;-59
2021/06/30 06:36:52;;;;;;;1.40;0.60;;;;;;;;;;5089143;28;20692;-58
2021/06/30 06:39:23;;;;;;;1.15;0.70;;;;;;;;;;5089022;28;20034;-58
2021/06/30 06:41:55;;;;;;;2.67;0.93;;;;;;;;;;5090097;28;20048;-59
2021/06/30 06:44:27;;;;;;;3.15;0.60;;;;;;;;;;5089221;28;20036;-58
2021/06/30 06:46:58;;;;;;;1.13;0.65;;;;;;;;;;5090242;28;20157;-59
2021/06/30 06:49:30;;;;;;;1.13;0.60;;;;;;;;;;5088285;28;20063;-58
2021/06/30 06:52:02;;;;;;;1.85;0.60;;;;;;;;;;5089445;28;20048;-59
2021/06/30 06:54:34;;;;;;;0.70;0.70;;;;;;;;;;5090981;28;20031;-59
2021/06/30 06:57:05;;;;;;;2.90;0.93;;;;;;;;;;5088179;28;20036;-59
2021/06/30 06:59:37;;;;;;;2.25;0.55;;;;;;;;;;5087679;28;20055;-59
2021/06/30 07:02:09;;;;;;;2.15;0.50;;;;;;;;;;5089657;28;20109;-59
2021/06/30 07:04:40;;;;;;;2.05;0.90;;;;;;;;;;5087796;28;20047;-59
2021/06/30 07:07:13;;;;;;;1.30;0.50;;;;;;;;;;5104145;28;20040;-59
2021/06/30 07:09:44;;;;;;;;;;;;;;;;;;5089953;28;20472;-59
2021/06/30 07:12:16;;;;;;;2.50;0.52;;;;;;;;;;5086968;28;20445;-60
2021/06/30 07:14:48;;;;;;;2.63;0.60;;;;;;;;;;5090780;28;20040;-59
2021/06/30 07:17:20;;;;;;;3.45;1.00;;;;;;;;;;5088801;28;20071;-59
2021/06/30 07:19:51;;;;;;;1.00;0.50;;;;;;;;;;5087627;28;20033;-59
2021/06/30 07:22:23;;;;;;;0.57;0.50;;;;;;;;;;5090296;28;20052;-58
2021/06/30 07:24:55;;;;;;;0.50;0.50;;;;;;;;;;5089142;28;20075;-59
2021/06/30 07:27:26;;;;;;;1.67;0.60;;;;;;;;;;5089608;28;20048;-60
2021/06/30 07:29:58;;;;;;;0.93;0.60;;;;;;;;;;5094732;28;20364;-59
2021/06/30 07:32:30;;;;;;;0.85;0.60;;;;;;;;;;5098749;28;20418;-59
2021/06/30 07:35:02;;;;;;;1.20;0.50;;;;;;;;;;5089535;28;20048;-59
2021/06/30 07:37:34;;;;;;;2.78;1.02;;;;;;;;;;5091920;28;20039;-60
2021/06/30 07:40:07;;;;;;;4.80;0.93;;;;;;;;;;5092613;28;20032;-59
2021/06/30 07:42:38;;;;;;;;;;;;;;;;;;5093875;28;20078;-60
2021/06/30 07:45:10;;;;;;;3.70;0.60;;;;;;;;;;5093863;28;19920;-59
2021/06/30 07:47:37;;;;;;;8.38;1.25;;;;;;;;;;5094047;28;20105;-60
2021/06/30 07:50:05;;;;;;;0.40;0.40;;;;;;;;;;5093060;28;20062;-59
2021/06/30 07:52:32;;;;;;;0.88;0.50;;;;;;;;;;5093388;28;20040;-60
2021/06/30 07:54:59;;;;;;;0.50;0.50;;;;;;;;;;5093087;28;20072;-59
2021/06/30 07:57:25;;;;;;;0.50;0.50;;;;;;;;;;5093819;28;20591;-59
2021/06/30 07:59:52;;;;;;;1.55;0.50;;;;;;;;;;5092534;28;20040;-60
2021/06/30 08:02:19;;;;;;;0.52;0.50;;;;;;;;;;5093431;28;20097;-59
2021/06/30 08:04:46;;;;;;;0.50;0.40;;;;;;;;;;5089999;28;20152;-60
2021/06/30 08:07:12;;;;;;;0.93;0.40;;;;;;;;;;5094651;28;20048;-59
2021/06/30 08:09:39;;;;;;;0.52;0.50;;;;;;;;;;5092169;28;20426;-59
2021/06/30 08:12:06;;;;;;;3.45;0.50;;;;;;;;;;5091651;28;20544;-60
2021/06/30 08:14:33;;;;;;;2.15;0.40;;;;;;;;;;5093672;28;20040;-60
2021/06/30 08:17:03;;;;;;;0.50;0.43;;;;;;;;;;5093361;28;20379;-60
2021/06/30 08:19:31;;;;;;;1.48;0.50;;;;;;;;;;5092377;28;20070;-59
2021/06/30 08:21:58;;;;;;;3.60;0.40;;;;;;;;;;5091721;28;20111;-59
2021/06/30 08:24:24;;;;;;;0.90;0.55;;;;;;;;;;5091646;28;20040;-59
2021/06/30 08:26:52;;;;;;;1.92;0.45;;;;;;;;;;5092504;28;20099;-60
2021/06/30 08:29:21;;;;;;;1.27;0.40;;;;;;;;;;5091916;28;20063;-59
2021/06/30 08:31:48;;;;;;;2.25;0.50;;;;;;;;;;5092354;28;20052;-59
2021/06/30 08:34:15;;;;;;;0.65;0.50;;;;;;;;;;5091385;28;20566;-59
2021/06/30 08:36:42;;;;;;;0.30;0.30;;;;;;;;;;5092281;28;20119;-60
2021/06/30 08:39:10;;;;;;;3.55;0.40;;;;;;;;;;5092643;28;20090;-59
2021/06/30 08:41:37;;;;;;;1.40;0.40;;;;;;;;;;5092910;28;20040;-59
2021/06/30 08:44:04;;;;;;;1.33;0.40;;;;;;;;;;5092485;28;20032;-59
2021/06/30 08:46:33;;;;;;;2.30;0.40;;;;;;;;;;5090525;28;20062;-59
2021/06/30 08:49:02;;;;;;;0.98;0.40;;;;;;;;;;5090731;28;20122;-60
2021/06/30 08:51:29;;;;;;;2.00;0.50;;;;;;;;;;5093802;28;20032;-59
2021/06/30 08:53:56;;;;;;;0.50;0.50;;;;;;;;;;5091469;28;20653;-60
2021/06/30 08:56:31;;;;;;;0.60;0.40;;;;;;;;;;5091097;28;20044;-60
2021/06/30 08:59:01;;;;;;;1.38;0.50;;;;;;;;;;5087345;28;20615;-60
2021/06/30 09:01:30;;;;;;;0.40;0.32;;;;;;;;;;5081663;28;20040;-59
2021/06/30 09:03:57;;;;;;;0.60;0.30;;;;;;;;;;5108790;28;20067;-59
2021/06/30 09:06:24;;;;;;;1.05;0.30;;;;;;;;;;5093620;28;20047;-59
2021/06/30 09:08:51;;;;;;;0.60;0.32;;;;;;;;;;5090511;28;20040;-60
2021/06/30 09:11:19;;;;;;;0.57;0.40;;;;;;;;;;5091883;28;20149;-60
2021/06/30 09:13:50;;;;;;;0.55;0.40;;;;;;;;;;5090226;28;20048;-60
2021/06/30 09:16:17;;;;;;;1.10;0.30;;;;;;;;;;5091220;28;20560;-59
2021/06/30 09:18:47;;;;;;;0.60;0.38;;;;;;;;;;5092718;28;20077;-60
2021/06/30 09:21:16;;;;;;;1.17;0.50;;;;;;;;;;5090473;28;20450;-61
2021/06/30 09:24:01;;;;;;;0.45;0.30;;;;;;;;;;5093244;28;20063;-60
2021/06/30 09:26:29;;;;;;;0.95;0.30;;;;;;;;;;5090866;28;20031;-60
2021/06/30 09:29:09;;;;;;;0.95;0.30;;;;;;;;;;5091604;28;20111;-60
2021/06/30 09:31:37;;;;;;;0.70;0.40;;;;;;;;;;5091471;28;20040;-60
2021/06/30 09:34:04;;;;;;;0.30;0.30;;;;;;;;;;5090311;28;20047;-61
2021/06/30 09:36:33;;;;;;;0.30;0.30;;;;;;;;;;5091475;28;20123;-59
2021/06/30 09:39:07;;;;;;;0.65;0.30;;;;;;;;;;5091257;28;20040;-60
2021/06/30 09:41:35;;;;;;;0.32;0.30;;;;;;;;;;5089605;28;20059;-60
2021/06/30 09:44:06;;;;;;;5.15;0.43;;;;;;;;;;5091596;28;20093;-60
2021/06/30 09:46:33;;;;;;;4.63;0.38;;;;;;;;;;5090398;28;20070;-60
2021/06/30 09:49:02;;;;;;;2.40;0.30;;;;;;;;;;5088926;28;20044;-60
2021/06/30 09:51:29;;;;;;;1.67;0.30;;;;;;;;;;5091666;28;20040;-59
2021/06/30 09:54:07;;;;;;;0.40;0.40;;;;;;;;;;5089969;28;20090;-60
2021/06/30 09:56:34;;;;;;;0.50;0.40;;;;;;;;;;5090959;28;20040;-60
2021/06/30 09:59:09;;;;;;;1.17;0.40;;;;;;;;;;5091008;28;20349;-59
2021/06/30 10:01:36;;;;;;;1.95;0.45;;;;;;;;;;5089770;28;20069;-60
2021/06/30 10:04:04;;;;;;;0.75;0.40;;;;;;;;;;5090346;28;20043;-59
2021/06/30 10:06:33;;;;;;;2.13;0.50;;;;;;;;;;5087572;28;20369;-59
2021/06/30 10:09:00;;;;;;;0.45;0.40;;;;;;;;;;5090330;28;20446;-60
2021/06/30 10:11:28;;;;;;;0.40;0.40;;;;;;;;;;5090835;28;20069;-59
2021/06/30 10:13:55;;;;;;;1.10;0.40;;;;;;;;;;5081175;28;20472;-60
2021/06/30 10:16:23;;;;;;;1.20;0.40;;;;;;;;;;5091046;28;20063;-60
2021/06/30 10:18:51;;;;;;;1.30;0.30;;;;;;;;;;5086869;28;20078;-60
2021/06/30 10:21:20;;;;;;;1.02;0.43;;;;;;;;;;5090365;28;20039;-60
2021/06/30 10:23:47;;;;;;;0.40;0.30;;;;;;;;;;5089388;28;20089;-60
2021/06/30 10:26:15;;;;;;;1.52;0.32;;;;;;;;;;5086971;28;20294;-60
2021/06/30 10:28:43;;;;;;;1.40;0.30;;;;;;;;;;5091551;28;20101;-60
2021/06/30 10:31:10;;;;;;;0.50;0.30;;;;;;;;;;5089074;28;20036;-59
2021/06/30 10:33:41;;;;;;;0.68;0.50;;;;;;;;;;5088148;28;20054;-59
2021/06/30 10:36:08;;;;;;;0.32;0.32;;;;;;;;;;5089025;28;20507;-60
2021/06/30 10:38:55;;;;;;;0.60;0.40;;;;;;;;;;5088483;28;20036;-60
2021/06/30 10:41:35;;;;;;;1.65;0.30;;;;;;;;;;5087773;28;20389;-60
2021/06/30 10:44:07;;;;;;;1.48;0.30;;;;;;;;;;5088706;28;20032;-59
2021/06/30 10:46:35;;;;;;;2.72;0.30;;;;;;;;;;5088721;28;20035;-59
2021/06/30 10:49:11;;;;;;;0.95;0.40;;;;;;;;;;5090240;28;20040;-60
2021/06/30 10:51:42;;;;;;;0.50;0.40;;;;;;;;;;5087368;28;20459;-60
2021/06/30 10:54:27;;;;;;;0.90;0.40;;;;;;;;;;5087966;28;20044;-60
2021/06/30 10:57:13;;;;;;;1.40;0.40;;;;;;;;;;5089146;28;20475;-60
2021/06/30 10:59:58;;;;;;;2.92;0.40;;;;;;;;;;5087230;28;20048;-60
2021/06/30 11:02:25;;;;;;;2.15;0.40;;;;;;;;;;5107130;28;20129;-59
2021/06/30 11:04:52;;;;;;;1.85;0.30;;;;;;;;;;5089159;28;20035;-59
2021/06/30 11:07:35;;;;;;;1.58;0.30;;;;;;;;;;5086987;28;20086;-60
2021/06/30 11:10:19;;;;;;;0.43;0.30;;;;;;;;;;5089469;28;20036;-59
2021/06/30 11:12:56;;;;;;;1.75;0.30;;;;;;;;;;5088865;28;20561;-60
2021/06/30 11:15:38;;;;;;;0.30;0.30;;;;;;;;;;5085525;28;20048;-60
2021/06/30 11:18:25;;;;;;;0.30;0.30;;;;;;;;;;5089397;28;20047;-59
2021/06/30 11:20:53;;;;;;;0.63;0.43;;;;;;;;;;5079761;28;20320;-59
2021/06/30 11:23:19;;;;;;;0.40;0.40;;;;;;;;;;5084105;28;20068;-60
2021/06/30 11:25:47;;;;;;;0.63;0.40;;;;;;;;;;5090268;28;20067;-59
2021/06/30 11:28:37;;;;;;;0.40;0.40;;;;;;;;;;5089275;28;20036;-59
2021/06/30 11:31:22;;;;;;;1.05;0.40;;;;;;;;;;5080556;28;20140;-60
2021/06/30 11:34:08;;;;;;;1.98;0.40;;;;;;;;;;5089154;28;20078;-60
2021/06/30 11:36:37;;;;;;;2.58;0.40;;;;;;;;;;5086538;28;20086;-59
2021/06/30 11:39:08;;;;;;;0.40;0.40;;;;;;;;;;5082691;28;20036;-60
2021/06/30 11:41:42;;;;;;;1.48;0.30;;;;;;;;;;5088762;28;20059;-59
2021/06/30 11:44:10;;;;;;;1.58;0.30;;;;;;;;;;5087737;28;20036;-54
2021/06/30 11:46:38;;;;;;;0.30;0.30;;;;;;;;;;5089443;28;20063;-59
2021/06/30 11:49:06;;;;;;;0.30;0.30;;;;;;;;;;5089036;28;20094;-58
2021/06/30 11:51:33;;;;;;;0.50;0.50;;;;;;;;;;5085977;28;20024;-59
2021/06/30 11:54:00;;;;;;;1.48;0.30;;;;;;;;;;5089871;28;20047;-59
2021/06/30 11:56:39;;;;;;;2.25;0.95;;;;;;;;;;5087575;28;20051;-59
2021/06/30 11:59:09;;;;;;;0.30;0.30;;;;;;;;;;5088846;28;20029;-58
2021/06/30 12:01:40;;;;;;;5.00;0.40;;;;;;;;;;5082681;28;20115;-59
2021/06/30 12:04:06;;;;;;;3.03;0.40;;;;;;;;;;5076632;28;21216;-59
2021/06/30 12:06:33;;;;;;;0.95;0.40;;;;;;;;;;5090142;28;20542;-59
2021/06/30 12:09:20;;;;;;;0.63;0.30;;;;;;;;;;5087870;28;20047;-59
2021/06/30 12:11:57;;;;;;;1.25;0.30;;;;;;;;;;5086627;28;20040;-59
2021/06/30 12:14:28;;;;;;;2.83;0.30;;;;;;;;;;5089644;28;20083;-59
2021/06/30 12:16:58;;;;;;;1.80;0.30;;;;;;;;;;5088894;28;20035;-59
2021/06/30 12:19:31;;;;;;;1.05;0.40;;;;;;;;;;5086684;28;20032;-59
2021/06/30 12:21:58;;;;;;;0.30;0.30;;;;;;;;;;5091691;28;20361;-58
2021/06/30 12:24:25;;;;;;;0.95;0.30;;;;;;;;;;5092266;28;20040;-59
2021/06/30 12:27:01;;;;;;;0.40;0.30;;;;;;;;;;5088497;28;20498;-59
2021/06/30 12:29:28;;;;;;;0.30;0.30;;;;;;;;;;5091019;28;20458;-60
2021/06/30 12:31:55;;;;;;;0.30;0.30;;;;;;;;;;5093017;28;20127;-59
2021/06/30 12:34:23;;;;;;;5.15;0.40;;;;;;;;;;5089220;28;20044;-59
2021/06/30 12:36:50;;;;;;;0.32;0.32;;;;;;;;;;5088589;28;20093;-59
2021/06/30 12:39:43;;;;;;;0.73;0.38;;;;;;;;;;5090211;28;20101;-59
2021/06/30 12:42:10;;;;;;;;;;;;;;;;;;5088847;28;20063;-59
2021/06/30 12:44:51;;;;;;;1.55;0.30;;;;;;;;;;5071752;28;20015;-59
2021/06/30 12:47:18;;;;;;;0.30;0.30;;;;;;;;;;5105436;28;20040;-59
2021/06/30 12:49:56;;;;;;;0.25;0.25;;;;;;;;;;5091552;28;20056;-60
2021/06/30 12:52:23;;;;;;;0.30;0.30;;;;;;;;;;5091344;28;20427;-60
2021/06/30 12:55:11;;;;;;;45.83;2.72;;;;;;;;;;5093229;28;20392;-59
2021/06/30 12:58:04;;;;;;;0.30;0.30;;;;;;;;;;5092802;28;20036;-60
2021/06/30 13:00:32;;;;;;;1.95;0.30;;;;;;;;;;5079353;28;20044;-60
2021/06/30 13:03:16;;;;;;;1.35;0.30;;;;;;;;;;5092138;28;20595;-60
2021/06/30 13:05:46;;;;;;;0.52;0.30;;;;;;;;;;5091164;28;20040;-59
2021/06/30 13:08:33;;;;;;;0.50;0.30;;;;;;;;;;5089255;28;20062;-60
2021/06/30 13:11:22;;;;;;;2.38;0.40;;;;;;;;;;5094205;28;20077;-60
2021/06/30 13:14:02;;;;;;;1.75;0.30;;;;;;;;;;5089899;28;20043;-59
2021/06/30 13:16:31;;;;;;;0.45;0.45;;;;;;;;;;5090112;28;20047;-58
2021/06/30 13:18:58;;;;;;;0.93;0.28;;;;;;;;;;5091922;28;20058;-60
2021/06/30 13:21:30;;;;;;;1.40;0.30;;;;;;;;;;5091977;28;20082;-60
2021/06/30 13:23:59;;;;;;;1.48;0.28;;;;;;;;;;5090387;28;20089;-59
2021/06/30 13:35:17;;;;;;;0.38;0.20;;;;;;;;;;5092026;28;20044;-59
2021/06/30 13:37:44;;;;;;;1.02;0.30;;;;;;;;;;5090901;28;20411;-60
2021/06/30 13:40:11;;;;;;;5.45;0.50;;;;;;;;;;5090626;28;20507;-60
2021/06/30 13:42:38;;;;;;;2.58;0.28;;;;;;;;;;5092374;28;20036;-59
2021/06/30 13:45:05;;;;;;;0.40;0.22;;;;;;;;;;5089502;28;20553;-60
2021/06/30 13:47:33;;;;;;;2.78;0.30;;;;;;;;;;5091195;28;20047;-59
2021/06/30 13:50:00;;;;;;;0.30;0.30;;;;;;;;;;5087686;28;20396;-59
2021/06/30 13:52:27;;;;;;;2.20;0.30;;;;;;;;;;5077860;28;20044;-59
2021/06/30 13:54:54;;;;;;;2.70;0.40;;;;;;;;;;5090707;28;20051;-59
2021/06/30 13:57:21;;;;;;;2.22;0.20;;;;;;;;;;5085191;28;20428;-59
2021/06/30 13:59:48;;;;;;;2.05;0.30;;;;;;;;;;5090086;28;20151;-59
2021/06/30 14:02:15;;;;;;;0.65;0.30;;;;;;;;;;5088549;28;20093;-59
2021/06/30 14:04:42;;;;;;;0.55;0.30;;;;;;;;;;5089374;28;20708;-58
2021/06/30 14:07:08;;;;;;;1.65;0.38;;;;;;;;;;5091469;28;20040;-59
2021/06/30 14:09:35;;;;;;;0.52;0.32;;;;;;;;;;5069872;28;20067;-59
2021/06/30 14:12:02;;;;;;;0.40;0.30;;;;;;;;;;5090936;28;20062;-59
2021/06/30 14:14:29;;;;;;;1.85;0.30;;;;;;;;;;5089928;28;20044;-59
2021/06/30 14:16:56;;;;;;;2.05;0.30;;;;;;;;;;5090507;28;20054;-59
2021/06/30 14:19:25;;;;;;;0.73;0.30;;;;;;;;;;5083405;28;20035;-59
2021/06/30 14:21:52;;;;;;;0.43;0.22;;;;;;;;;;5088337;28;20503;-59
2021/06/30 14:24:19;;;;;;;1.77;0.30;;;;;;;;;;5091857;28;20044;-59
2021/06/30 14:26:46;;;;;;;1.45;0.22;;;;;;;;;;5091846;28;20098;-59
2021/06/30 14:29:13;;;;;;;2.00;0.30;;;;;;;;;;5088449;28;20040;-59
2021/06/30 14:31:40;;;;;;;0.55;0.30;;;;;;;;;;5089485;28;20067;-59
2021/06/30 14:34:07;;;;;;;1.90;0.57;;;;;;;;;;5088976;28;20187;-58
2021/06/30 14:36:34;;;;;;;1.95;0.30;;;;;;;;;;5090833;28;20040;-59
2021/06/30 14:39:02;;;;;;;1.40;0.30;;;;;;;;;;5081781;28;20641;-59
2021/06/30 14:41:28;;;;;;;0.77;0.20;;;;;;;;;;5090890;28;20502;-59
2021/06/30 14:43:55;;;;;;;1.52;0.20;;;;;;;;;;5082979;28;20028;-59
2021/06/30 14:46:22;;;;;;;4.50;0.20;;;;;;;;;;5086430;28;20032;-59
2021/06/30 14:48:49;;;;;;;0.50;0.20;;;;;;;;;;5089028;28;20123;-59
2021/06/30 14:51:15;;;;;;;1.00;0.20;;;;;;;;;;5091119;28;20101;-59
2021/06/30 14:53:42;;;;;;;0.20;0.20;;;;;;;;;;5089605;28;20047;-59
2021/06/30 14:56:09;;;;;;;2.05;0.20;;;;;;;;;;5072442;28;20077;-59
2021/06/30 14:58:36;;;;;;;0.47;0.20;;;;;;;;;;5087558;28;20502;-59
2021/06/30 15:01:02;;;;;;;0.98;0.20;;;;;;;;;;5083583;28;20044;-59
2021/06/30 15:03:29;;;;;;;0.20;0.20;;;;;;;;;;5069337;28;20082;-59
2021/06/30 15:05:56;;;;;;;1.52;0.28;;;;;;;;;;5089283;28;20435;-59
2021/06/30 15:08:24;;;;;;;1.05;0.20;;;;;;;;;;5087072;28;20387;-59
2021/06/30 15:10:50;;;;;;;0.30;0.20;;;;;;;;;;5087283;28;20396;-59
2021/06/30 15:13:17;;;;;;;0.88;0.30;;;;;;;;;;5087535;28;20075;-59
2021/06/30 15:15:44;;;;;;;2.92;0.20;;;;;;;;;;5086061;28;20071;-58